Map

Track Data

SID SEASON NUMBER BASIN SUBBASIN NAME ISO_TIME NATURE LAT LON WMO_WIND WMO_PRES WMO_AGENCY TRACK_TYPE DIST2LAND LANDFALL IFLAG USA_AGENCY USA_ATCF_ID USA_LAT USA_LON USA_RECORD USA_STATUS USA_WIND USA_PRES USA_SSHS USA_R34_NE USA_R34_SE USA_R34_SW USA_R34_NW USA_R50_NE USA_R50_SE USA_R50_SW USA_R50_NW USA_R64_NE USA_R64_SE USA_R64_SW USA_R64_NW USA_POCI USA_ROCI USA_RMW USA_EYE TOKYO_LAT TOKYO_LON TOKYO_GRADE TOKYO_WIND TOKYO_PRES TOKYO_R50_DIR TOKYO_R50_LONG TOKYO_R50_SHORT TOKYO_R30_DIR TOKYO_R30_LONG TOKYO_R30_SHORT TOKYO_LAND CMA_LAT CMA_LON CMA_CAT CMA_WIND CMA_PRES HKO_LAT HKO_LON HKO_CAT HKO_WIND HKO_PRES NEWDELHI_LAT NEWDELHI_LON NEWDELHI_GRADE NEWDELHI_WIND NEWDELHI_PRES NEWDELHI_CI NEWDELHI_DP NEWDELHI_POCI REUNION_LAT REUNION_LON REUNION_TYPE REUNION_WIND REUNION_PRES REUNION_TNUM REUNION_CI REUNION_RMW REUNION_R34_NE REUNION_R34_SE REUNION_R34_SW REUNION_R34_NW REUNION_R50_NE REUNION_R50_SE REUNION_R50_SW REUNION_R50_NW REUNION_R64_NE REUNION_R64_SE REUNION_R64_SW REUNION_R64_NW BOM_LAT BOM_LON BOM_TYPE BOM_WIND BOM_PRES BOM_TNUM BOM_CI BOM_RMW BOM_R34_NE BOM_R34_SE BOM_R34_SW BOM_R34_NW BOM_R50_NE BOM_R50_SE BOM_R50_SW BOM_R50_NW BOM_R64_NE BOM_R64_SE BOM_R64_SW BOM_R64_NW BOM_ROCI BOM_POCI BOM_EYE BOM_POS_METHOD BOM_PRES_METHOD NADI_LAT NADI_LON NADI_CAT NADI_WIND NADI_PRES WELLINGTON_LAT WELLINGTON_LON WELLINGTON_WIND WELLINGTON_PRES DS824_LAT DS824_LON DS824_STAGE DS824_WIND DS824_PRES TD9636_LAT TD9636_LON TD9636_STAGE TD9636_WIND TD9636_PRES TD9635_LAT TD9635_LON TD9635_WIND TD9635_PRES TD9635_ROCI NEUMANN_LAT NEUMANN_LON NEUMANN_CLASS NEUMANN_WIND NEUMANN_PRES MLC_LAT MLC_LON MLC_CLASS MLC_WIND MLC_PRES USA_GUST BOM_GUST BOM_GUST_PER REUNION_GUST REUNION_GUST_PER USA_SEAHGT USA_SEARAD_NE USA_SEARAD_SE USA_SEARAD_SW USA_SEARAD_NW STORM_SPEED STORM_DIR
1992311N06107 1992 121 WP MM NOT_NAMED 1992-11-06 00:00:00 NR 5.90000 107.100 main 230 230 O_____________ jtwc_io IO101992 5.90000 107.100 10 -1 7 311
1992311N06107 1992 121 WP MM NOT_NAMED 1992-11-06 03:00:00 NR 6.11252 106.850 main 260 260 P_____________ IO101992 6.11252 106.850 10 -1 6 309
1992311N06107 1992 121 WP MM NOT_NAMED 1992-11-06 06:00:00 NR 6.30000 106.600 main 297 295 O_____________ jtwc_io IO101992 6.30000 106.600 10 -1 6 304
1992311N06107 1992 121 WP MM NOT_NAMED 1992-11-06 09:00:00 NR 6.44999 106.350 main 290 261 P_____________ IO101992 6.44999 106.350 12 -1 6 301
1992311N06107 1992 121 WP MM NOT_NAMED 1992-11-06 12:00:00 NR 6.60000 106.100 main 261 233 O_____________ jtwc_io IO101992 6.60000 106.100 15 -1 6 304
1992311N06107 1992 121 WP MM NOT_NAMED 1992-11-06 15:00:00 NR 6.78500 105.842 main 230 204 P_____________ IO101992 6.78500 105.842 15 -1 6 309
1992311N06107 1992 121 WP MM NOT_NAMED 1992-11-06 18:00:00 NR 7.00000 105.600 main 204 176 O_____________ jtwc_io IO101992 7.00000 105.600 15 -1 7 317
1992311N06107 1992 121 WP MM NOT_NAMED 1992-11-06 21:00:00 NR 7.25748 105.393 main 166 138 P_____________ IO101992 7.25748 105.393 15 -1 6 321
1992311N06107 1992 121 WP MM NOT_NAMED 1992-11-07 00:00:00 NR 7.50000 105.200 main 138 112 O_____________ jtwc_io IO101992 7.50000 105.200 15 -1 6 318
1992311N06107 1992 121 WP MM NOT_NAMED 1992-11-07 03:00:00 NR 7.67998 105.007 main 112 100 P_____________ IO101992 7.67998 105.007 15 -1 5 307
1992311N06107 1992 121 WP MM NOT_NAMED 1992-11-07 06:00:00 NR 7.80000 104.800 main 101 95 O_____________ jtwc_io IO101992 7.80000 104.800 15 -1 5 293
1992311N06107 1992 121 WP MM NOT_NAMED 1992-11-07 09:00:00 NR 7.86497 104.572 main 95 95 P_____________ IO101992 7.86497 104.572 17 -1 5 281
1992311N06107 1992 121 WP MM NOT_NAMED 1992-11-07 12:00:00 NR 7.90000 104.300 main 111 111 O_____________ jtwc_io IO101992 7.90000 104.300 20 -1 6 279
1992311N06107 1992 121 WP MM NOT_NAMED 1992-11-07 15:00:00 NR 7.95748 103.973 main 125 125 P_____________ IO101992 7.95748 103.973 20 -1 7 278
1992311N06107 1992 121 WP MM NOT_NAMED 1992-11-07 18:00:00 NR 8.00000 103.600 main 159 159 O_____________ jtwc_io IO101992 8.00000 103.600 20 -1 7 274
1992311N06107 1992 121 WP MM NOT_NAMED 1992-11-07 21:00:00 NR 8.00743 103.222 main 197 188 P_____________ IO101992 8.00743 103.222 20 -1 8 270
1992311N06107 1992 121 WP MM NOT_NAMED 1992-11-08 00:00:00 NR 8.00000 102.800 main 188 160 O_____________ jtwc_io IO101992 8.00000 102.800 20 -1 9 270
1992311N06107 1992 121 WP MM NOT_NAMED 1992-11-08 03:00:00 NR 8.00743 102.330 main 155 136 P_____________ IO101992 8.00743 102.330 20 -1 10 270
1992311N06107 1992 121 WP MM NOT_NAMED 1992-11-08 06:00:00 NR 8.00000 101.800 main 136 101 O_____________ jtwc_io IO101992 8.00000 101.800 20 -1 11 267
1992311N06107 1992 121 WP MM NOT_NAMED 1992-11-08 09:00:00 NR 7.95741 101.230 main 90 24 P_____________ IO101992 7.95741 101.230 17 -1 12 265
1992311N06107 1992 121 WP MM NOT_NAMED 1992-11-08 12:00:00 NR 7.90000 100.600 main 24 0 O_____________ jtwc_io IO101992 7.90000 100.600 15 -1 13 265
1992311N06107 1992 121 NI BB NOT_NAMED 1992-11-08 15:00:00 NR 7.84983 99.9375 main 0 0 P_____________ IO101992 7.84983 99.9375 12 -1 14 266
1992311N06107 1992 121 NI BB NOT_NAMED 1992-11-08 18:00:00 NR 7.80000 99.2000 main 0 0 O_____________ jtwc_io IO101992 7.80000 99.2000 10 -1 16 266
1992311N06107 1992 121 NI BB NOT_NAMED 1992-11-08 21:00:00 NR 7.74996 98.3725 main 44 44 P_____________ IO101992 7.74996 98.3725 10 -1 17 267
1992311N06107 1992 121 NI BB NOT_NAMED 1992-11-09 00:00:00 NR 7.70000 97.5000 main 104 104 O_____________ jtwc_io IO101992 7.70000 97.5000 10 -1 17 267
1992311N06107 1992 121 NI BB NOT_NAMED 1992-11-09 03:00:00 NR 7.64983 96.6500 main 188 188 P_____________ IO101992 7.64983 96.6500 12 -1 17 267
1992311N06107 1992 121 NI BB NOT_NAMED 1992-11-09 06:00:00 NR 7.60000 95.8000 main 226 224 O_____________ jtwc_io IO101992 7.60000 95.8000 15 -1 17 267
1992311N06107 1992 121 NI BB NOT_NAMED 1992-11-09 09:00:00 NR 7.54988 94.9425 main 215 215 P_____________ IO101992 7.54988 94.9425 15 -1 17 267
1992311N06107 1992 121 NI BB NOT_NAMED 1992-11-09 12:00:00 NR 7.50000 94.1000 main 245 245 O_____________ jtwc_io IO101992 7.50000 94.1000 15 -1 17 267
1992311N06107 1992 121 NI BB NOT_NAMED 1992-11-09 15:00:00 NR 7.44993 93.2700 main 291 291 P_____________ IO101992 7.44993 93.2700 15 -1 16 266
1992311N06107 1992 121 NI BB NOT_NAMED 1992-11-09 18:00:00 NR 7.40000 92.5000 main 360 360 O_____________ jtwc_io IO101992 7.40000 92.5000 15 -1 14 266
1992311N06107 1992 121 NI BB NOT_NAMED 1992-11-09 21:00:00 NR 7.34233 91.8200 main 421 421 P_____________ IO101992 7.34233 91.8200 17 -1 13 266
1992311N06107 1992 121 NI BB NOT_NAMED 1992-11-10 00:00:00 NR 7.30000 91.2000 main 481 481 O_____________ jtwc_io IO101992 7.30000 91.2000 20 -1 12 268
1992311N06107 1992 121 NI BB NOT_NAMED 1992-11-10 03:00:00 NR 7.29239 90.5925 main 543 543 P_____________ IO101992 7.29239 90.5925 20 -1 12 270
1992311N06107 1992 121 NI BB NOT_NAMED 1992-11-10 06:00:00 NR 7.30000 90.0000 main 605 605 O_____________ jtwc_io IO101992 7.30000 90.0000 20 -1 12 271
1992311N06107 1992 121 NI BB NOT_NAMED 1992-11-10 09:00:00 NR 7.30745 89.3925 main 669 669 P_____________ IO101992 7.30745 89.3925 22 -1 12 270
1992311N06107 1992 121 NI BB NOT_NAMED 1992-11-10 12:00:00 NR 7.30000 88.8000 main 732 707 O_____________ jtwc_io IO101992 7.30000 88.8000 25 -1 11 267
1992311N06107 1992 121 NI BB NOT_NAMED 1992-11-10 15:00:00 NR 7.25741 88.2425 main 696 640 P_____________ IO101992 7.25741 88.2425 25 -1 11 265
1992311N06107 1992 121 NI BB NOT_NAMED 1992-11-10 18:00:00 NR 7.20000 87.7000 main 640 585 O_____________ jtwc_io IO101992 7.20000 87.7000 25 -1 11 264
1992311N06107 1992 121 NI BB NOT_NAMED 1992-11-10 21:00:00 NR 7.14993 87.1500 main 585 519 P_____________ IO101992 7.14993 87.1500 27 -1 11 269
1992311N06107 1992 121 NI BB NOT_NAMED 1992-11-11 00:00:00 NR 7.18000 86.5800 1004 newdelhi main 519 464 O___O_________ jtwc_io IO101992 7.10000 86.6000 30 -1 7.50000 86.5000 1004 0.00000 2 1006 11 273
1992311N06107 1992 121 NI BB NOT_NAMED 1992-11-11 03:00:00 NR 7.20000 86.0333 main 453 398 P___P_________ IO101992 7.04994 86.0500 32 -1 7.50011 86.0000 1003 4 1007 11 272
1992311N06107 1992 121 NI BB NOT_NAMED 1992-11-11 06:00:00 NR 7.21429 85.5000 30 1002 newdelhi main 398 343 O___O_________ jtwc_io IO101992 7.00000 85.5000 35 0 7.50000 85.5000 30 1002 2.00000 6 1008 11 272
1992311N06107 1992 121 NI BB NOT_NAMED 1992-11-11 09:00:00 NR 7.22869 84.9750 main 343 288 P___P_________ IO101992 6.95744 84.9500 40 0 7.49994 85.0000 37 1000 8 1008 10 269
1992311N06107 1992 121 NI BB NOT_NAMED 1992-11-11 12:00:00 NR 7.20000 84.4500 45 998 newdelhi main 288 233 O___O_________ jtwc_io IO101992 6.90000 84.4000 45 0 7.50000 84.5000 45 998 3.00000 10 1008 10 267
1992311N06107 1992 121 NI BB NOT_NAMED 1992-11-11 15:00:00 NR 7.17245 83.9213 main 222 166 P___P_________ IO101992 6.80746 83.8425 47 0 7.53744 84.0001 45 998 10 1008 10 265
1992311N06107 1992 121 NI BB NOT_NAMED 1992-11-11 18:00:00 NR 7.10000 83.4000 45 998 newdelhi main 166 111 O___O_________ jtwc_io IO101992 6.70000 83.3000 50 0 7.50000 83.5000 45 998 3.00000 10 1008 10 256
1992311N06107 1992 121 NI BB NOT_NAMED 1992-11-11 21:00:00 NR 6.92494 82.8962 main 111 59 P___P_________ IO101992 6.59993 82.7925 52 0 7.24995 82.9998 45 997 11 1008 11 251
1992311N06107 1992 121 NI BB NOT_NAMED 1992-11-12 00:00:00 NR 6.75000 82.4000 45 996 newdelhi main 59 15 O___O_________ jtwc_io IO101992 6.50000 82.3000 55 0 7.00000 82.5000 45 996 3.00000 12 1008 10 254
1992311N06107 1992 121 NI BB NOT_NAMED 1992-11-12 03:00:00 NR 6.65113 81.9187 main 15 0 P___P_________ IO101992 6.37745 81.8000 55 0 6.92481 82.0374 40 999 10 1009 10 264
1992311N06107 1992 121 NI BB NOT_NAMED 1992-11-12 06:00:00 NR 6.65000 81.4000 35 1002 newdelhi main 0 0 O___O_________ jtwc_io IO101992 6.30000 81.3000 55 0 7.00000 81.5000 35 1002 2.50000 8 1010 12 277
1992311N06107 1992 121 NI BB NOT_NAMED 1992-11-12 09:00:00 NR 6.78889 80.7565 main 0 0 P___P_________ IO101992 6.32745 80.8001 47 0 7.25033 80.7129 35 1001 8 1009 13 284
1992311N06107 1992 121 NI BB NOT_NAMED 1992-11-12 12:00:00 NR 6.95000 80.1500 35 1000 newdelhi main 0 0 O___O_________ jtwc_io IO101992 6.40000 80.3000 40 0 7.50000 80.0000 35 1000 2.50000 8 1008 10 280
1992311N06107 1992 121 NI BB NOT_NAMED 1992-11-12 15:00:00 NR 6.97489 79.7261 main 22 22 P___P_________ IO101992 6.41251 79.7774 42 0 7.53727 79.6749 35 999 8 1007 7 274
1992311N06107 1992 121 NI BB NOT_NAMED 1992-11-12 18:00:00 NR 7.00000 79.4000 35 998 newdelhi main 55 55 O___O_________ jtwc_io IO101992 6.50000 79.3000 45 0 7.50000 79.5000 35 998 2.50000 8 1006 7 282
1992311N06107 1992 121 NI BB NOT_NAMED 1992-11-12 21:00:00 NR 7.10872 79.0812 main 88 88 P___P_________ IO101992 6.75495 78.9125 52 0 7.46249 79.2499 35 999 8 1007 7 297
1992311N06107 1992 121 NI BB NOT_NAMED 1992-11-13 00:00:00 NR 7.30000 78.8000 35 1000 newdelhi main 115 114 O___O_________ jtwc_io IO101992 7.10000 78.6000 60 0 7.50000 79.0000 35 1000 2.50000 8 1008 7 311
1992311N06107 1992 121 NI BB NOT_NAMED 1992-11-13 03:00:00 NR 7.55494 78.5574 main 105 60 P___P_________ IO101992 7.43497 78.3274 65 1 7.67490 78.7873 45 997 12 1008 8 320
1992311N06107 1992 121 NI BB NOT_NAMED 1992-11-13 06:00:00 NR 7.90000 78.3000 55 994 newdelhi main 60 11 O___O_________ jtwc_io IO101992 7.80000 78.1000 70 1 8.00000 78.5000 55 994 3.50000 16 1008 10 322
1992311N06107 1992 121 NI AS NOT_NAMED 1992-11-13 09:00:00 NR 8.35010 77.9352 main 0 0 P___P_________ IO101992 8.19995 77.9074 62 0 8.50025 77.9630 50 995 13 1007 11 322
1992311N06107 1992 121 NI AS NOT_NAMED 1992-11-13 12:00:00 NR 8.80000 77.6000 45 996 newdelhi main 0 0 O___O_________ jtwc_io IO101992 8.60000 77.7000 55 0 9.00000 77.5000 45 996 0.00000 10 1006 9 328
1992311N06107 1992 121 NI AS NOT_NAMED 1992-11-13 15:00:00 NR 9.13368 77.4386 main 0 0 P___P_________ IO101992 8.96500 77.4150 47 0 9.30236 77.4622 37 998 8 1006 7 334
1992311N06107 1992 121 NI AS NOT_NAMED 1992-11-13 18:00:00 NR 9.40000 77.3000 30 1000 newdelhi main 0 0 O___O_________ jtwc_io IO101992 9.30000 77.1000 40 0 9.50000 77.5000 30 1000 0.00000 6 1006 6 321
1992311N06107 1992 121 NI AS NOT_NAMED 1992-11-13 21:00:00 NR 9.63253 77.0325 main 0 0 P___P_________ IO101992 9.63002 76.7775 40 0 9.63503 77.2874 30 1000 6 1006 7 310
1992311N06107 1992 121 NI AS NOT_NAMED 1992-11-14 00:00:00 NR 9.85000 76.7500 30 1000 newdelhi main 0 0 O___O_________ jtwc_io IO101992 9.90000 76.5000 40 0 9.80000 77.0000 30 1000 0.00000 6 1006 7 315
1992311N06107 1992 121 NI AS NOT_NAMED 1992-11-14 03:00:00 NR 10.1225 76.5425 main 0 0 P___P_________ IO101992 10.0724 76.3349 37 0 10.1725 76.7501 27 1001 5 1006 6 322
1992311N06107 1992 121 NI AS NOT_NAMED 1992-11-14 06:00:00 NR 10.3500 76.3500 25 1002 newdelhi main 0 0 O___O_________ jtwc_io IO101992 10.2000 76.2000 35 0 10.5000 76.5000 25 1002 1.50000 4 1006 5 309
1992311N06107 1992 121 NI AS NOT_NAMED 1992-11-14 09:00:00 NR 10.4550 76.1324 main 0 0 P___P_________ IO101992 10.3575 76.0150 32 -1 10.5525 76.2499 25 1002 4 1006 5 289
1992311N06107 1992 121 NI AS NOT_NAMED 1992-11-14 12:00:00 NR 10.5000 75.9000 25 1002 newdelhi main 21 21 O___O_________ jtwc_io IO101992 10.5000 75.8000 30 -1 10.5000 76.0000 25 1002 1.50000 4 1006 5 281
1992311N06107 1992 121 NI AS NOT_NAMED 1992-11-14 15:00:00 NR 10.5462 75.6537 main 39 39 P___P_________ IO101992 10.5925 75.5574 32 -1 10.5000 75.7500 25 1003 4 1007 5 282
1992311N06107 1992 121 NI AS NOT_NAMED 1992-11-14 18:00:00 NR 10.6000 75.4000 25 1004 newdelhi main 59 59 O___O_________ jtwc_io IO101992 10.7000 75.3000 35 0 10.5000 75.5000 25 1004 1.50000 4 1008 5 284
1992311N06107 1992 121 NI AS NOT_NAMED 1992-11-14 21:00:00 NR 10.6700 75.1425 main 88 88 P___P_________ IO101992 10.8775 75.0350 40 0 10.4625 75.2499 25 1003 4 1007 5 292
1992311N06107 1992 121 NI AS NOT_NAMED 1992-11-15 00:00:00 NR 10.8000 74.9000 25 1002 newdelhi main 109 109 O___O_________ jtwc_io IO101992 11.1000 74.8000 45 0 10.5000 75.0000 25 1002 1.50000 4 1006 6 308
1992311N06107 1992 121 NI AS NOT_NAMED 1992-11-15 03:00:00 NR 11.0275 74.6701 main 113 109 P___P_________ IO101992 11.3425 74.6275 50 0 10.7125 74.7126 27 1001 5 1006 6 322
1992311N06107 1992 121 NI AS NOT_NAMED 1992-11-15 06:00:00 NR 11.3000 74.5000 30 1000 newdelhi main 109 101 O___O_________ jtwc_io IO101992 11.6000 74.5000 55 0 11.0000 74.5000 30 1000 2.00000 6 1006 6 335
1992311N06107 1992 121 NI AS NOT_NAMED 1992-11-15 09:00:00 NR 11.5537 74.4237 main 97 88 P___P_________ IO101992 11.8575 74.3850 55 0 11.2500 74.4624 30 1000 6 1006 5 349
1992311N06107 1992 121 NI AS NOT_NAMED 1992-11-15 12:00:00 NR 11.8000 74.4000 30 1000 newdelhi main 88 79 O___O_________ jtwc_io IO101992 12.1000 74.3000 55 0 11.5000 74.5000 30 1000 2.00000 6 1006 5 354
1992311N06107 1992 121 NI AS NOT_NAMED 1992-11-15 15:00:00 NR 12.0287 74.3712 main 79 68 P___P_________ IO101992 12.3075 74.2425 52 0 11.7500 74.5000 30 1001 6 1007 5 354
1992311N06107 1992 121 NI AS NOT_NAMED 1992-11-15 18:00:00 NR 12.2500 74.3500 30 1002 newdelhi main 63 63 O___O_________ jtwc_io IO101992 12.5000 74.2000 50 0 12.0000 74.5000 30 1002 0.00000 6 1008 5 353
1992311N06107 1992 121 NI AS NOT_NAMED 1992-11-15 21:00:00 NR 12.4900 74.3213 main 63 55 P___P_________ IO101992 12.6925 74.1425 47 0 12.2875 74.5000 30 1001 6 1007 5 354
1992311N06107 1992 121 NI AS NOT_NAMED 1992-11-16 00:00:00 NR 12.7000 74.3000 30 1000 newdelhi main 55 54 O___O_________ jtwc_io IO101992 12.9000 74.1000 45 0 12.5000 74.5000 30 1000 0.00000 6 1006 3 0
1992311N06107 1992 121 NI AS NOT_NAMED 1992-11-16 03:00:00 NR 12.8025 74.2962 main 54 54 P___P_________ IO101992 13.1425 74.0925 42 0 12.4625 74.5000 30 1001 6 1006 3 2
1992311N06107 1992 121 NI AS NOT_NAMED 1992-11-16 06:00:00 NR 12.9500 74.3000 30 1002 newdelhi main 54 43 O___O_________ jtwc_io IO101992 13.4000 74.1000 40 0 12.5000 74.5000 30 1002 0.00000 6 1006 5 0
1992311N06107 1992 121 NI AS NOT_NAMED 1992-11-16 09:00:00 NR 13.3250 74.3000 main 43 39 P___P_________ IO101992 13.6500 74.1000 37 0 13.0000 74.5000 30 1001 6 1006 8 0
1992311N06107 1992 121 NI AS NOT_NAMED 1992-11-16 12:00:00 NR 13.7000 74.3000 30 1000 newdelhi main 39 34 O___O_________ jtwc_io IO101992 13.9000 74.1000 35 0 13.5000 74.5000 30 1000 0.00000 6 1006 5 359
1992311N06107 1992 121 NI AS NOT_NAMED 1992-11-16 15:00:00 NR 13.8437 74.2963 main 34 31 P___P_________ IO101992 14.1500 74.0925 35 0 13.5375 74.5000 30 1001 6 1007 3 2
1992311N06107 1992 121 NI AS NOT_NAMED 1992-11-16 18:00:00 NR 13.9500 74.3000 30 1002 newdelhi main 24 15 O___O_________ jtwc_io IO101992 14.4000 74.1000 35 0 13.5000 74.5000 30 1002 0.00000 6 1008 3 0
1992311N06107 1992 121 NI AS NOT_NAMED 1992-11-16 21:00:00 NR 14.1887 74.3100 main 15 10 P___P_________ IO101992 14.6650 74.1200 35 0 13.7125 74.5000 30 1001 6 1007 5 7
1992311N06107 1992 121 NI AS NOT_NAMED 1992-11-17 00:00:00 NR 14.4500 74.3500 30 1000 newdelhi main 0 0 O___O_________ jtwc_io IO101992 14.9000 74.2000 35 0 14.0000 74.5000 30 1000 0.00000 6 1006 5 12
1992311N06107 1992 121 NI AS NOT_NAMED 1992-11-17 03:00:00 NR 14.6575 74.4201 main 0 0 P___P_________ IO101992 15.0650 74.3775 35 0 14.2500 74.4626 27 1001 5 1006 5 24
1992311N06107 1992 121 NI AS NOT_NAMED 1992-11-17 06:00:00 NR 14.9000 74.5571 25 1002 newdelhi main 0 0 O___O_________ jtwc_io IO101992 15.2000 74.6000 35 0 14.5000 74.5000 25 1002 0.00000 4 1006 6 35
1992311N06107 1992 121 NI AS NOT_NAMED 1992-11-17 09:00:00 NR 15.1450 74.7716 main 0 0 P___P_________ IO101992 15.3425 74.8075 32 -1 14.7501 74.6998 1003 3 1006 6 42
1992311N06107 1992 121 NI AS NOT_NAMED 1992-11-17 12:00:00 NR 15.3750 75.0000 1004 newdelhi main 0 0 O___O_________ jtwc_io IO101992 15.5000 75.0000 30 -1 15.0000 75.0000 1004 0.00000 2 1006 7 35
1992311N06107 1992 121 NI AS NOT_NAMED 1992-11-17 15:00:00 NR 15.6900 75.1599 main 0 0 P_____________ IO101992 15.6900 75.1599 27 -1 6 29
1992311N06107 1992 121 NI AS NOT_NAMED 1992-11-17 18:00:00 NR 15.9000 75.3000 main 0 O_____________ jtwc_io IO101992 15.9000 75.3000 25 -1 5 33

Digital Typhoon Data and Search

About IBTrACS Database

This database is a web-friendly format of International Best Track Archive for Climate Stewardship (IBTrACS), a global best track data archive curated by NOAA dating back to 1842.

Updated: 2021-10-19